Time;durP1;ratioP1;P1;durP2;ratioP2;P2;SDS_P1;SDS_P2;PMS_P1;PMS_P2;Temp;Humidity;BMP_temperature;BMP_pressure;BME280_temperature;BME280_humidity;BME280_pressure;Samples;Min_cycle;Max_cycle;Signal;HPM_P1;HPM_P2
2022/01/19 00:01:27;;;;;;;31.35;19.08;;;;;;;3.13;78.91;103056.47;3592716;39;20060;-66
2022/01/19 00:03:53;;;;;;;38.65;19.55;;;;;;;3.08;79.46;103042.28;3593681;40;20056;-66
2022/01/19 00:06:19;;;;;;;42.13;20.80;;;;;;;3.07;79.58;103046.69;3592856;40;20051;-66
2022/01/19 00:08:45;;;;;;;37.28;20.35;;;;;;;3.03;79.65;103040.47;3593244;40;20066;-66
2022/01/19 00:11:10;;;;;;;40.30;21.40;;;;;;;2.99;80.00;103032.50;3592135;40;20059;-66
2022/01/19 00:13:36;;;;;;;38.88;21.48;;;;;;;2.89;80.47;103025.38;3593363;39;20044;-66
2022/01/19 00:16:02;;;;;;;38.72;22.00;;;;;;;2.90;81.02;103041.31;3591863;40;20083;-66
2022/01/19 00:18:28;;;;;;;41.67;22.20;;;;;;;2.87;80.39;103043.94;3592720;40;20054;-67
2022/01/19 00:20:55;;;;;;;38.88;22.30;;;;;;;2.83;80.56;103043.94;3593592;40;20047;-65
2022/01/19 00:23:23;;;;;;;35.00;20.35;;;;;;;2.81;79.93;103043.03;3594399;39;20364;-66
2022/01/19 00:25:52;;;;;;;38.42;20.70;;;;;;;2.74;79.74;103027.03;3594623;40;20124;-66
2022/01/19 00:28:18;;;;;;;36.92;20.02;;;;;;;2.71;79.31;103011.09;3594428;40;20058;-66
2022/01/19 00:30:44;;;;;;;38.97;19.77;;;;;;;2.72;80.04;103002.22;3592643;40;20452;-66
2022/01/19 00:33:13;;;;;;;39.22;21.73;;;;;;;2.72;80.95;102985.41;3594530;39;20313;-66
2022/01/19 00:35:38;;;;;;;46.90;23.00;;;;;;;2.67;80.59;102968.59;3594557;40;20047;-66
2022/01/19 00:38:08;;;;;;;48.22;23.02;;;;;;;2.64;80.89;102956.19;3595439;40;20499;-66
2022/01/19 00:40:37;;;;;;;38.78;22.15;;;;;;;2.55;80.93;102935.78;3578648;40;20067;-66
2022/01/19 00:43:02;;;;;;;44.65;21.98;;;;;;;2.54;81.79;102918.09;3594357;39;20044;-66
2022/01/19 00:45:28;;;;;;;36.72;22.00;;;;;;;2.53;80.56;102926.91;3593784;40;20058;-66
2022/01/19 00:47:53;;;;;;;41.72;22.35;;;;;;;2.49;81.21;102935.75;3594740;40;20044;-66
2022/01/19 00:50:24;;;;;;;41.58;21.25;;;;;;;2.50;80.89;102948.13;3594006;40;20054;-66
2022/01/19 00:52:51;;;;;;;37.47;19.65;;;;;;;2.49;81.17;102959.63;3590568;39;20129;-66
2022/01/19 00:55:19;;;;;;;41.17;22.35;;;;;;;2.51;80.72;102960.53;3595045;40;20117;-66
2022/01/19 00:57:45;;;;;;;39.63;21.05;;;;;;;2.52;80.74;102966.72;3594078;40;20055;-66
2022/01/19 01:00:17;;;;;;;47.97;23.15;;;;;;;2.52;81.57;102966.72;3594151;40;20051;-66
2022/01/19 01:02:43;;;;;;;47.65;21.88;;;;;;;2.52;81.47;102975.56;3593340;39;21518;-66
2022/01/19 01:05:09;;;;;;;48.47;22.23;;;;;;;2.52;81.30;102967.59;3594821;40;20055;-66
2022/01/19 01:07:38;;;;;;;47.08;21.45;;;;;;;2.49;80.35;102953.44;3593668;40;20048;-66
2022/01/19 01:10:10;;;;;;;42.90;21.73;;;;;;;2.50;80.98;102950.78;3594790;40;20054;-66
2022/01/19 01:12:48;;;;;;;54.08;23.38;;;;;;;2.49;81.00;102940.16;3594067;40;20398;-66
2022/01/19 01:20:39;;;;;;;45.70;22.77;;;;;;;2.46;81.51;102913.59;3593452;40;20367;-66
2022/01/19 01:23:07;;;;;;;44.97;23.23;;;;;;;2.32;81.39;102892.31;3594517;39;20129;-66
2022/01/19 01:25:33;;;;;;;41.30;22.48;;;;;;;2.25;82.17;102882.50;3593409;40;20052;-66
2022/01/19 01:27:58;;;;;;;44.88;22.90;;;;;;;2.36;81.93;102899.41;3594622;40;20071;-66
2022/01/19 01:30:24;;;;;;;45.13;23.02;;;;;;;2.31;81.58;102879.88;3577007;40;20053;-66
2022/01/19 01:32:50;;;;;;;45.42;22.77;;;;;;;2.28;81.54;102878.13;3593505;40;20110;-67
2022/01/19 01:35:15;;;;;;;41.45;21.58;;;;;;;2.22;81.44;102872.78;3593975;40;20054;-66
2022/01/19 01:37:41;;;;;;;38.88;21.67;;;;;;;2.14;82.06;102847.09;3594441;40;20125;-66
2022/01/19 01:40:13;;;;;;;37.85;21.33;;;;;;;1.92;81.43;102783.31;3594007;40;20313;-64
2022/01/19 01:42:40;;;;;;;42.45;22.67;;;;;;;2.17;81.85;102829.41;3594124;40;20137;-65
2022/01/19 01:45:12;;;;;;;42.22;22.95;;;;;;;2.16;82.15;102819.69;3594343;40;20059;-64
2022/01/19 01:47:46;;;;;;;39.22;22.02;;;;;;;2.14;81.86;102820.56;3594418;40;20898;-65
2022/01/19 01:55:26;;;;;;;40.63;22.00;;;;;;;2.15;81.90;102824.97;3594456;40;20055;-65
2022/01/19 01:57:52;;;;;;;39.05;22.52;;;;;;;2.13;80.68;102834.72;3593789;40;20104;-65
2022/01/19 02:00:25;;;;;;;41.50;21.58;;;;;;;2.12;80.64;102835.56;3593751;40;20052;-65
2022/01/19 02:02:52;;;;;;;40.08;22.02;;;;;;;2.12;80.49;102835.56;3594025;39;20051;-65
2022/01/19 02:05:21;;;;;;;37.80;20.85;;;;;;;2.09;80.18;102829.38;3594361;40;20110;-64
2022/01/19 02:08:00;;;;;;;34.55;20.95;;;;;;;2.08;80.23;102816.97;3593967;40;20117;-64
2022/01/19 02:10:36;;;;;;;38.67;21.75;;;;;;;2.06;80.81;102813.47;3593161;40;20378;-65
2022/01/19 02:16:25;;;;;;;43.08;23.23;;;;;;;2.06;81.50;102797.53;3593246;40;20401;-64
2022/01/19 02:21:39;;;;;;;43.97;22.08;;;;;;;2.06;81.34;102793.97;3593809;39;20109;-64
2022/01/19 02:24:11;;;;;;;38.85;22.33;;;;;;;2.05;80.77;102794.88;3593739;40;20044;-64
2022/01/19 02:28:54;;;;;;;44.03;23.33;;;;;;;2.04;81.45;102788.69;3593398;40;20059;-64
2022/01/19 02:40:32;;;;;;;48.55;24.70;;;;;;;1.83;81.71;102698.41;3594282;40;20084;-64
2022/01/19 02:50:59;;;;;;;42.65;22.38;;;;;;;1.89;80.76;102706.38;3591165;40;20067;-64
2022/01/19 02:53:25;;;;;;;43.67;22.88;;;;;;;1.88;79.89;102696.66;3593495;39;20051;-64
2022/01/19 02:55:50;;;;;;;44.40;23.50;;;;;;;1.85;80.13;102708.13;3593652;40;20421;-64
2022/01/19 02:58:19;;;;;;;45.15;23.17;;;;;;;1.84;80.13;102709.03;3594491;40;20060;-64
2022/01/19 03:08:43;;;;;;;49.60;24.42;;;;;;;1.72;80.35;102676.28;3540931;40;20068;-64
2022/01/19 03:09:10;;;;;;;41.75;23.40;;;;;;;1.74;81.22;102682.44;3541307;40;20122;-63
2022/01/19 03:11:36;;;;;;;46.85;24.15;;;;;;;1.66;80.84;102668.28;3586096;40;20059;-63
2022/01/19 03:14:03;;;;;;;39.38;23.35;;;;;;;1.49;80.90;102639.94;3580651;40;20044;-65
2022/01/19 03:16:29;;;;;;;44.20;23.15;;;;;;;1.69;80.41;102678.91;3580213;40;20049;-65
2022/01/19 03:18:54;;;;;;;42.88;24.27;;;;;;;1.65;80.43;102663.84;3580900;40;20056;-64
2022/01/19 03:21:20;;;;;;;39.58;23.17;;;;;;;1.64;80.33;102670.91;3580573;40;20063;-64
2022/01/19 03:23:45;;;;;;;44.03;24.27;;;;;;;1.58;79.96;102660.28;3580410;40;20056;-64
2022/01/19 03:26:11;;;;;;;48.45;23.65;;;;;;;1.53;80.52;102648.78;3584313;40;20044;-63
2022/01/19 03:28:37;;;;;;;39.85;22.33;;;;;;;1.50;81.38;102646.13;3579805;40;20721;-63
2022/01/19 03:31:06;;;;;;;43.53;23.80;;;;;;;1.55;80.82;102653.19;3581190;40;20269;-64
2022/01/19 03:33:32;;;;;;;42.85;23.58;;;;;;;1.47;79.94;102639.03;3575693;40;20055;-64
2022/01/19 03:35:58;;;;;;;41.67;22.52;;;;;;;1.47;79.83;102640.81;3578220;40;20044;-63
2022/01/19 03:38:24;;;;;;;40.30;22.40;;;;;;;1.44;79.94;102633.72;3577167;40;20056;-64
2022/01/19 03:40:50;;;;;;;42.50;22.92;;;;;;;1.31;80.75;102618.66;3578679;40;20048;-63
2022/01/19 03:43:16;;;;;;;46.47;23.50;;;;;;;1.42;80.44;102637.25;3577609;40;20056;-63
2022/01/19 03:45:50;;;;;;;38.10;23.02;;;;;;;1.43;80.53;102631.03;3578692;40;20057;-68
2022/01/19 03:50:57;;;;;;;43.05;23.85;;;;;;;1.43;80.65;102620.44;3581537;40;20277;-64
2022/01/19 03:53:22;;;;;;;42.83;24.88;;;;;;;1.37;80.64;102602.78;3575229;40;20052;-63
2022/01/19 03:55:48;;;;;;;42.40;23.77;;;;;;;1.43;81.78;102604.56;3579689;40;20056;-64
2022/01/19 03:58:14;;;;;;;46.97;25.70;;;;;;;1.38;82.30;102578.94;3577151;40;20045;-64
2022/01/19 04:00:43;;;;;;;51.30;26.58;;;;;;;1.46;82.88;102581.63;3583446;40;20068;-63
2022/01/19 04:03:13;;;;;;;47.97;25.45;;;;;;;1.54;82.84;102587.81;3579082;40;20051;-64
2022/01/19 04:05:55;;;;;;;50.92;29.95;;;;;;;1.55;82.63;102581.63;3579467;40;20061;-64
2022/01/19 04:08:21;;;;;;;45.53;26.23;;;;;;;1.60;83.57;102584.31;3575257;40;20073;-64
2022/01/19 04:10:46;;;;;;;48.58;27.50;;;;;;;0.89;82.89;102450.72;3579992;40;20049;-64
2022/01/19 04:15:53;;;;;;;40.72;24.65;;;;;;;1.69;82.70;102584.34;3578614;40;20061;-65
2022/01/19 04:18:19;;;;;;;48.88;26.77;;;;;;;1.44;81.94;102535.69;3581377;40;20049;-66
2022/01/19 04:20:50;;;;;;;43.75;26.17;;;;;;;1.58;81.70;102555.16;3578925;40;20072;-65
2022/01/19 04:23:19;;;;;;;45.55;25.40;;;;;;;1.38;81.41;102527.72;3576905;40;20114;-64
2022/01/19 04:25:45;;;;;;;47.47;25.35;;;;;;;1.60;80.77;102565.78;3578152;40;20088;-66
2022/01/19 04:28:12;;;;;;;46.17;26.70;;;;;;;1.63;82.30;102576.38;3577058;40;20060;-65
2022/01/19 04:30:39;;;;;;;51.72;27.55;;;;;;;1.63;82.00;102569.31;3579206;40;20067;-64
2022/01/19 04:33:09;;;;;;;47.78;26.63;;;;;;;1.58;82.56;102565.75;3576890;40;20060;-65
2022/01/19 04:36:08;;;;;;;59.08;30.60;;;;;;;1.65;82.86;102556.06;3580034;40;20056;-64
2022/01/19 04:39:08;;;;;;;65.78;32.38;;;;;;;1.39;83.63;102509.16;3575985;40;20056;-65
2022/01/19 05:15:33;;;;;;;;;;;;;;;2.07;82.03;102539.34;3576179;40;20106;-65
2022/01/19 05:17:58;;;;;;;62.58;31.00;;;;;;;2.13;81.85;102545.56;3569293;40;19951;-64
2022/01/19 05:20:24;;;;;;;64.40;30.85;;;;;;;2.08;82.23;102535.81;3580536;40;20399;-63
2022/01/19 05:22:49;;;;;;;63.08;32.40;;;;;;;2.17;82.17;102564.13;3575965;40;20049;-65
2022/01/19 05:25:15;;;;;;;56.08;29.80;;;;;;;2.06;82.37;102532.28;3575544;40;20048;-66
2022/01/19 05:27:40;;;;;;;63.08;33.42;;;;;;;2.11;82.61;102553.50;3579374;40;20068;-65
2022/01/19 05:30:07;;;;;;;61.58;31.80;;;;;;;2.05;82.26;102538.47;3576413;40;20300;-67
2022/01/19 05:32:32;;;;;;;59.95;31.15;;;;;;;2.07;82.45;102549.09;3580059;40;20077;-66
2022/01/19 05:34:58;;;;;;;58.00;29.83;;;;;;;2.01;82.52;102539.34;3578951;40;20406;-65
2022/01/19 05:37:23;;;;;;;60.35;30.55;;;;;;;2.03;82.80;102541.97;3577349;40;20061;-66
2022/01/19 05:39:49;;;;;;;61.35;31.55;;;;;;;2.15;82.49;102546.44;3579483;40;20060;-66
2022/01/19 05:42:16;;;;;;;54.22;30.42;;;;;;;2.23;82.49;102558.81;3579883;40;20140;-66
2022/01/19 05:44:45;;;;;;;56.08;31.25;;;;;;;2.22;82.18;102540.22;3576571;40;20138;-65
2022/01/19 05:47:12;;;;;;;62.00;32.35;;;;;;;2.34;82.55;102553.50;3579264;40;20075;-65
2022/01/19 05:49:39;;;;;;;55.88;29.65;;;;;;;2.39;81.79;102554.41;3577708;40;20060;-65
2022/01/19 05:52:06;;;;;;;52.50;29.40;;;;;;;2.44;82.59;102542.03;3577604;40;20060;-65
2022/01/19 05:54:33;;;;;;;51.47;29.10;;;;;;;2.37;81.81;102521.66;3580864;40;20044;-65
2022/01/19 05:57:00;;;;;;;51.42;28.48;;;;;;;2.51;81.86;102541.13;3575836;40;20107;-64
2022/01/19 05:59:26;;;;;;;51.92;29.52;;;;;;;2.52;81.96;102534.03;3571172;40;20053;-64
2022/01/19 06:01:52;;;;;;;50.17;29.45;;;;;;;2.41;81.42;102501.31;3580222;40;20052;-64
2022/01/19 06:04:18;;;;;;;52.42;29.65;;;;;;;2.59;81.86;102537.56;3578235;40;20055;-65
2022/01/19 06:06:43;;;;;;;50.40;29.65;;;;;;;2.65;81.26;102541.09;3578745;40;20052;-64
2022/01/19 06:09:22;;;;;;;48.80;29.60;;;;;;;2.54;81.71;102513.69;3578851;40;20056;-64
2022/01/19 06:11:48;;;;;;;46.47;28.75;;;;;;;2.67;81.38;102522.53;3576157;40;20055;-64
2022/01/19 06:14:14;;;;;;;45.58;27.55;;;;;;;2.70;82.24;102523.41;3575431;40;20056;-64
2022/01/19 06:16:41;;;;;;;44.30;27.15;;;;;;;2.73;81.78;102519.88;3580033;40;20052;-65
2022/01/19 06:19:06;;;;;;;48.15;28.17;;;;;;;2.82;81.73;102519.81;3581073;40;20167;-64
2022/01/19 06:21:33;;;;;;;44.88;27.52;;;;;;;2.77;81.13;102511.00;3575925;40;20064;-64
2022/01/19 06:23:58;;;;;;;42.92;25.73;;;;;;;2.76;81.18;102498.63;3580668;40;20634;-65
2022/01/19 06:26:24;;;;;;;42.15;26.58;;;;;;;2.84;81.84;102512.75;3581872;40;20052;-65
2022/01/19 06:28:52;;;;;;;45.60;27.23;;;;;;;2.84;81.65;102507.44;3580855;40;20064;-65
2022/01/19 06:31:17;;;;;;;50.22;27.52;;;;;;;2.88;81.39;102510.97;3583368;40;20056;-65
2022/01/19 06:33:43;;;;;;;48.65;26.65;;;;;;;2.90;80.82;102511.84;3579259;40;20052;-64
2022/01/19 06:36:09;;;;;;;45.95;26.35;;;;;;;2.84;81.31;102487.97;3581577;40;20056;-65
2022/01/19 06:38:34;;;;;;;42.47;24.60;;;;;;;2.93;81.50;102496.78;3578520;40;20134;-66
2022/01/19 06:41:00;;;;;;;40.25;25.80;;;;;;;2.86;80.78;102471.13;3581508;40;20052;-66
2022/01/19 06:43:26;;;;;;;40.05;26.10;;;;;;;2.85;80.82;102468.47;3578429;40;20268;-66
2022/01/19 06:45:53;;;;;;;41.45;26.30;;;;;;;2.90;81.11;102472.00;3578992;40;20074;-66
2022/01/19 06:48:18;;;;;;;38.97;25.35;;;;;;;3.01;81.56;102478.16;3581026;40;20048;-65
2022/01/19 06:50:44;;;;;;;40.08;25.52;;;;;;;2.99;81.46;102475.50;3570719;40;20434;-65
2022/01/19 06:53:09;;;;;;;38.65;24.52;;;;;;;3.07;80.88;102480.78;3576844;40;20053;-67
2022/01/19 06:55:35;;;;;;;37.58;24.17;;;;;;;3.09;81.21;102476.34;3580284;40;20052;-65
2022/01/19 06:58:01;;;;;;;39.00;24.42;;;;;;;3.08;80.56;102479.03;3576274;40;20061;-65
2022/01/19 07:00:27;;;;;;;40.35;25.63;;;;;;;2.56;80.71;102384.50;3571078;40;20380;-65
2022/01/19 07:02:53;;;;;;;37.70;25.83;;;;;;;3.09;81.32;102464.84;3582230;40;20075;-66
2022/01/19 07:05:18;;;;;;;39.22;23.73;;;;;;;3.08;80.92;102458.66;3578145;40;20044;-66
2022/01/19 07:07:44;;;;;;;40.05;25.95;;;;;;;3.10;80.90;102458.63;3579191;40;20048;-65
2022/01/19 07:10:10;;;;;;;39.08;24.38;;;;;;;3.09;80.66;102448.91;3576595;40;20288;-65
2022/01/19 07:12:37;;;;;;;42.28;25.13;;;;;;;2.92;81.15;102418.00;3576713;40;20114;-65
2022/01/19 07:15:05;;;;;;;41.67;25.17;;;;;;;3.09;80.47;102448.91;3575116;40;20056;-65
2022/01/19 07:17:31;;;;;;;40.85;25.00;;;;;;;3.14;80.70;102447.09;3575640;40;20388;-65
2022/01/19 07:19:56;;;;;;;38.03;25.00;;;;;;;3.14;80.74;102453.31;3579369;40;20059;-65
2022/01/19 07:22:22;;;;;;;36.08;24.40;;;;;;;3.16;81.20;102450.63;3576039;40;20049;-66
2022/01/19 07:24:48;;;;;;;35.13;21.98;;;;;;;3.11;80.76;102447.09;3579149;40;20080;-65
2022/01/19 07:27:13;;;;;;;38.17;24.73;;;;;;;3.14;80.53;102441.78;3576685;40;20060;-66
2022/01/19 07:29:39;;;;;;;36.13;23.05;;;;;;;3.23;80.71;102449.72;3582163;40;20056;-64
2022/01/19 07:32:05;;;;;;;37.60;24.00;;;;;;;3.24;80.75;102454.16;3579318;40;20041;-64
2022/01/19 07:34:30;;;;;;;39.72;24.83;;;;;;;3.23;80.92;102447.06;3578020;40;20051;-65
2022/01/19 07:36:56;;;;;;;37.83;24.85;;;;;;;3.28;80.99;102449.69;3579360;40;20057;-64
2022/01/19 07:39:23;;;;;;;40.22;24.08;;;;;;;3.12;80.99;102417.00;3583007;40;20083;-65
2022/01/19 07:41:50;;;;;;;35.15;22.60;;;;;;;3.25;80.83;102439.97;3582243;40;20323;-66
2022/01/19 07:44:16;;;;;;;42.70;25.45;;;;;;;3.13;80.63;102413.47;3580468;40;20059;-65
2022/01/19 07:46:42;;;;;;;34.78;23.95;;;;;;;3.19;81.28;102419.63;3582967;40;20044;-65
2022/01/19 07:49:07;;;;;;;35.17;23.15;;;;;;;3.33;81.07;102430.19;3581333;40;20079;-64
2022/01/19 07:51:33;;;;;;;33.28;22.73;;;;;;;3.36;80.68;102438.16;3580649;40;20597;-65
2022/01/19 07:53:59;;;;;;;35.03;24.05;;;;;;;3.30;80.94;102410.69;3578674;40;20060;-65
2022/01/19 07:56:24;;;;;;;36.67;23.75;;;;;;;3.36;81.26;102440.81;3578763;40;20053;-65
2022/01/19 07:58:50;;;;;;;37.15;24.92;;;;;;;3.30;80.78;102416.00;3581205;40;20085;-65
2022/01/19 08:01:16;;;;;;;33.70;23.10;;;;;;;3.31;81.06;102428.44;3579990;40;20052;-64
2022/01/19 08:03:42;;;;;;;35.92;23.48;;;;;;;3.37;81.35;102423.06;3578642;40;20052;-66
2022/01/19 08:06:08;;;;;;;38.22;24.23;;;;;;;3.38;80.65;102416.84;3578882;40;20312;-65
2022/01/19 08:08:35;;;;;;;36.67;24.17;;;;;;;3.38;81.04;102415.06;3578953;40;20064;-66
2022/01/19 08:11:01;;;;;;;37.42;24.75;;;;;;;3.41;80.48;102416.84;3583084;40;20054;-67
2022/01/19 08:13:27;;;;;;;36.25;23.90;;;;;;;3.39;80.57;102397.34;3586543;40;20044;-65
2022/01/19 08:15:53;;;;;;;39.20;24.58;;;;;;;3.51;80.62;102415.00;3578575;40;20060;-65
2022/01/19 08:18:18;;;;;;;34.03;22.90;;;;;;;3.58;80.39;102416.72;3580065;40;20060;-65
2022/01/19 08:20:44;;;;;;;32.97;23.17;;;;;;;3.38;80.79;102382.31;3577620;40;20048;-66
2022/01/19 08:23:10;;;;;;;35.78;23.88;;;;;;;3.39;80.73;102376.09;3575635;40;20048;-65
2022/01/19 08:25:36;;;;;;;37.08;23.73;;;;;;;3.55;80.79;102395.47;3578420;40;20049;-65
2022/01/19 08:28:03;;;;;;;35.35;22.95;;;;;;;3.64;80.44;102403.38;3571429;40;20085;-65
2022/01/19 08:30:29;;;;;;;36.33;24.23;;;;;;;3.39;81.02;102355.69;3578328;40;20498;-66
2022/01/19 08:32:54;;;;;;;34.47;23.95;;;;;;;3.69;80.31;102398.91;3584621;40;20126;-67
2022/01/19 08:35:21;;;;;;;36.25;23.45;;;;;;;3.55;80.54;102376.84;3579429;40;20056;-65
2022/01/19 08:37:47;;;;;;;31.58;21.88;;;;;;;3.72;80.42;102397.09;3576956;40;20067;-65
2022/01/19 08:40:13;;;;;;;34.42;23.10;;;;;;;3.69;80.75;102393.59;3582112;40;20040;-65
2022/01/19 08:42:39;;;;;;;34.47;22.98;;;;;;;3.68;80.64;102386.53;3577134;40;20100;-65
2022/01/19 08:45:09;;;;;;;33.67;22.95;;;;;;;3.76;80.58;102395.31;3580788;40;20052;-66
2022/01/19 08:47:40;;;;;;;34.75;23.35;;;;;;;3.71;80.46;102389.13;3583242;40;20044;-66
2022/01/19 08:50:12;;;;;;;31.02;21.52;;;;;;;3.76;80.57;102379.34;3580658;40;20083;-65
2022/01/19 08:52:38;;;;;;;33.22;23.70;;;;;;;3.82;80.10;102384.63;3580453;40;20387;-63
2022/01/19 08:55:05;;;;;;;35.38;22.73;;;;;;;3.83;80.78;102373.06;3578216;40;20088;-63
2022/01/19 08:57:31;;;;;;;29.75;22.17;;;;;;;3.80;80.74;102359.78;3578446;40;20072;-63
2022/01/19 08:59:56;;;;;;;34.80;22.48;;;;;;;3.89;80.42;102370.34;3579583;40;20049;-63
2022/01/19 09:02:22;;;;;;;34.00;22.15;;;;;;;3.86;80.50;102354.41;3577282;40;20045;-64
2022/01/19 09:04:48;;;;;;;30.00;21.60;;;;;;;3.84;80.36;102350.91;3577708;40;20064;-63
2022/01/19 09:07:14;;;;;;;32.42;22.33;;;;;;;3.99;80.71;102362.28;3585827;40;20060;-63
2022/01/19 09:09:40;;;;;;;33.92;22.30;;;;;;;3.98;80.04;102357.88;3580948;40;20048;-63
2022/01/19 09:12:06;;;;;;;32.08;22.20;;;;;;;4.00;80.34;102353.44;3582935;40;20300;-63
2022/01/19 09:14:32;;;;;;;31.58;21.52;;;;;;;4.02;80.27;102351.63;3583638;40;20122;-62
2022/01/19 09:16:58;;;;;;;31.95;22.00;;;;;;;4.05;80.11;102349.81;3580440;40;20280;-65
2022/01/19 09:19:24;;;;;;;30.00;21.38;;;;;;;4.08;80.04;102348.91;3577028;40;20052;-64
2022/01/19 09:21:51;;;;;;;29.58;22.23;;;;;;;3.99;79.85;102330.34;3580679;40;20063;-64
2022/01/19 09:24:17;;;;;;;34.33;22.25;;;;;;;4.18;79.77;102350.56;3582120;39;20057;-64
2022/01/19 09:26:44;;;;;;;28.52;21.25;;;;;;;4.16;79.77;102355.03;3580065;40;20081;-64
2022/01/19 09:29:10;;;;;;;29.17;21.67;;;;;;;3.97;79.51;102314.44;3580369;40;20052;-64
2022/01/19 09:31:36;;;;;;;27.67;20.85;;;;;;;4.18;79.74;102350.56;3580188;40;20056;-63
2022/01/19 09:34:13;;;;;;;28.88;21.40;;;;;;;4.22;79.66;102352.31;3577459;40;20049;-63
2022/01/19 09:36:46;;;;;;;33.55;21.55;;;;;;;4.15;79.89;102331.94;3579458;40;20049;-64
2022/01/19 09:39:24;;;;;;;31.85;21.77;;;;;;;4.17;80.05;102323.06;3578555;40;20053;-63
2022/01/19 09:41:52;;;;;;;29.40;21.58;;;;;;;4.22;80.05;102330.09;3580959;40;20076;-63
2022/01/19 09:44:21;;;;;;;32.50;21.08;;;;;;;4.04;79.90;102292.16;3579042;40;20134;-64
2022/01/19 09:46:48;;;;;;;29.00;20.80;;;;;;;4.30;79.61;102329.13;3581096;40;20385;-64
2022/01/19 09:49:17;;;;;;;32.22;21.40;;;;;;;4.32;80.00;102316.69;3577872;40;20049;-63
2022/01/19 09:51:47;;;;;;;28.48;20.95;;;;;;;4.23;79.57;102295.50;3579027;40;20453;-64
2022/01/19 09:54:15;;;;;;;30.52;21.23;;;;;;;4.36;79.84;102309.53;3576179;40;20375;-65
2022/01/19 09:56:42;;;;;;;29.70;22.00;;;;;;;4.38;79.70;102297.09;3578038;40;20059;-64
2022/01/19 09:59:08;;;;;;;29.48;21.42;;;;;;;4.33;79.71;102289.16;3578364;40;20554;-64
2022/01/19 10:01:34;;;;;;;32.10;20.90;;;;;;;4.35;79.81;102283.84;3576666;40;20056;-63
2022/01/19 10:04:17;;;;;;;30.08;20.35;;;;;;;4.04;79.94;102219.47;3575332;40;20060;-64
2022/01/19 10:06:43;;;;;;;28.25;19.83;;;;;;;4.51;79.77;102289.84;3576881;40;20134;-64
2022/01/19 10:09:08;;;;;;;28.20;20.10;;;;;;;4.46;79.26;102275.69;3577055;40;20330;-64
2022/01/19 10:17:01;;;;;;;26.90;19.77;;;;;;;4.49;79.60;102267.66;3577900;40;20047;-63
2022/01/19 10:19:53;;;;;;;25.33;18.85;;;;;;;4.57;79.66;102273.78;3577863;40;20044;-64
2022/01/19 10:22:25;;;;;;;26.02;19.05;;;;;;;4.60;79.33;102284.41;3579290;40;20065;-64
2022/01/19 10:25:04;;;;;;;26.20;18.83;;;;;;;4.63;79.20;102287.91;3578910;40;20387;-64
2022/01/19 10:27:42;;;;;;;26.40;19.52;;;;;;;4.69;78.90;102278.03;3583824;40;20387;-63
2022/01/19 10:30:08;;;;;;;25.60;19.13;;;;;;;4.73;79.12;102278.00;3585361;40;20466;-63
2022/01/19 10:33:02;;;;;;;25.08;18.25;;;;;;;4.58;78.71;102241.78;3586571;40;20075;-63
2022/01/19 10:35:32;;;;;;;;;;;;;;;4.80;78.55;102266.34;3575839;40;20048;-64
2022/01/19 10:38:29;;;;;;;24.35;17.88;;;;;;;4.58;78.36;102225.81;3588522;40;19948;-64
2022/01/19 10:40:54;;;;;;;25.58;18.35;;;;;;;4.88;78.35;102251.13;3582206;40;20366;-64
2022/01/19 10:43:41;;;;;;;24.67;17.58;;;;;;;4.95;78.31;102248.34;3582537;40;20065;-64
2022/01/19 10:46:16;;;;;;;25.77;18.63;;;;;;;4.92;77.50;102241.31;3579532;40;20413;-63
2022/01/19 10:48:44;;;;;;;26.58;18.83;;;;;;;4.95;78.10;102251.00;3578470;40;20299;-64
2022/01/19 10:51:18;;;;;;;26.45;19.67;;;;;;;4.87;77.43;102219.16;3576413;40;20056;-64
2022/01/19 10:54:07;;;;;;;24.52;19.13;;;;;;;4.93;78.04;102223.53;3578607;40;20065;-64
2022/01/19 10:56:34;;;;;;;30.70;20.00;;;;;;;5.03;77.52;102255.31;3576419;40;20052;-63
2022/01/19 10:59:06;;;;;;;28.20;20.17;;;;;;;4.76;77.70;102208.69;3577002;40;20048;-64
2022/01/19 11:01:45;;;;;;;26.33;19.50;;;;;;;5.03;77.65;102252.66;3580077;40;20563;-63
2022/01/19 11:04:32;;;;;;;26.45;19.52;;;;;;;5.03;77.27;102241.13;3577803;40;20153;-63
2022/01/19 11:07:08;;;;;;;25.27;19.83;;;;;;;5.02;77.47;102228.72;3581228;40;20399;-64
2022/01/19 11:09:45;;;;;;;27.33;19.33;;;;;;;5.02;77.72;102229.59;3579466;40;20048;-64
2022/01/19 11:12:16;;;;;;;28.40;19.95;;;;;;;4.76;77.51;102174.06;3576890;40;20291;-64
2022/01/19 11:14:43;;;;;;;29.13;21.05;;;;;;;5.04;77.55;102221.56;3579269;40;20041;-64
2022/01/19 11:17:10;;;;;;;28.95;21.58;;;;;;;5.08;77.54;102217.94;3577088;40;20053;-64
2022/01/19 11:19:43;;;;;;;28.30;20.50;;;;;;;5.07;77.77;102208.19;3580165;40;20064;-64
2022/01/19 11:22:49;;;;;;;28.00;20.73;;;;;;;5.00;77.73;102183.41;3578774;40;20048;-67
2022/01/19 11:25:24;;;;;;;27.85;20.63;;;;;;;5.06;77.58;102193.09;3575426;40;20163;-65
2022/01/19 11:27:51;;;;;;;30.52;21.27;;;;;;;5.04;77.94;102186.91;3579296;40;20151;-64
2022/01/19 11:30:29;;;;;;;29.58;20.98;;;;;;;4.99;77.98;102176.34;3580739;40;20111;-64
2022/01/19 11:33:24;;;;;;;29.13;21.17;;;;;;;5.07;77.25;102190.44;3568874;40;20053;-63
2022/01/19 11:36:11;;;;;;;;;;;;;;;5.06;77.65;102185.97;3576373;40;20064;-63
2022/01/19 11:39:09;;;;;;;27.65;20.27;;;;;;;5.04;77.50;102168.25;3575708;40;19942;-63
2022/01/19 11:41:48;;;;;;;30.63;21.55;;;;;;;5.05;77.83;102159.38;3569494;40;20063;-64
2022/01/19 11:44:28;;;;;;;31.02;22.13;;;;;;;5.05;77.66;102164.69;3576871;40;20053;-64
2022/01/19 11:46:58;;;;;;;31.08;23.38;;;;;;;5.07;77.90;102154.88;3581675;40;22002;-63
2022/01/19 11:50:02;;;;;;;32.72;22.83;;;;;;;5.07;77.89;102147.78;3569427;40;20330;-63
2022/01/19 11:52:35;;;;;;;;;;;;;;;5.05;77.37;102132.72;3578866;40;20056;-64
2022/01/19 11:55:20;;;;;;;31.05;22.98;;;;;;;5.04;77.88;102130.94;3577895;40;19936;-64
2022/01/19 11:58:09;;;;;;;32.72;23.35;;;;;;;5.04;77.70;102138.94;3579036;40;20052;-64
2022/01/19 12:00:36;;;;;;;34.80;23.38;;;;;;;5.01;77.36;102115.91;3572365;40;20406;-63
2022/01/19 12:03:39;;;;;;;33.25;23.25;;;;;;;5.07;77.47;102118.47;3578329;40;20052;-64
2022/01/19 12:06:04;;;;;;;33.35;23.58;;;;;;;5.08;77.92;102114.00;3577854;40;20052;-63
2022/01/19 12:08:38;;;;;;;34.33;25.13;;;;;;;5.15;77.46;102112.97;3576404;40;20660;-63
2022/01/19 12:11:23;;;;;;;34.88;25.08;;;;;;;5.13;77.83;102107.66;3577500;40;20307;-64
2022/01/19 12:14:36;;;;;;;35.97;24.15;;;;;;;5.16;77.62;102116.53;3580709;40;20060;-63
2022/01/19 12:17:08;;;;;;;38.95;25.45;;;;;;;5.10;77.29;102097.06;3567989;40;20057;-64
2022/01/19 12:19:41;;;;;;;36.17;25.92;;;;;;;5.14;77.37;102097.91;3579898;40;20153;-63
2022/01/19 12:22:28;;;;;;;36.10;26.90;;;;;;;5.17;77.96;102095.19;3579212;40;20458;-63
2022/01/19 12:24:58;;;;;;;39.92;26.60;;;;;;;5.18;77.41;102086.28;3579509;40;20053;-63
2022/01/19 12:27:32;;;;;;;37.55;26.48;;;;;;;5.13;77.42;102070.34;3577389;40;20078;-63
2022/01/19 12:30:04;;;;;;;37.03;26.98;;;;;;;5.15;77.11;102059.69;3584203;40;20048;-63
2022/01/19 12:32:33;;;;;;;37.75;26.95;;;;;;;5.24;77.29;102062.16;3577826;40;20061;-63
2022/01/19 12:35:35;;;;;;;38.45;27.23;;;;;;;5.33;76.91;102063.78;3580397;40;20325;-63
2022/01/19 12:38:07;;;;;;;40.63;28.27;;;;;;;5.33;76.83;102064.66;3569765;40;20045;-64
2022/01/19 12:40:43;;;;;;;38.28;28.30;;;;;;;5.38;76.58;102072.53;3576407;40;20345;-64
2022/01/19 12:43:27;;;;;;;38.30;28.80;;;;;;;5.40;76.38;102064.53;3578582;40;20118;-64
2022/01/19 12:45:53;;;;;;;42.13;27.70;;;;;;;5.38;76.17;102056.53;3582644;40;20055;-64
2022/01/19 12:48:48;;;;;;;42.70;29.45;;;;;;;5.44;76.57;102050.22;3585830;40;20358;-64
2022/01/19 12:51:39;;;;;;;36.47;27.38;;;;;;;5.34;75.40;102006.88;3581405;40;20045;-64
2022/01/19 12:54:08;;;;;;;41.65;28.45;;;;;;;5.49;75.82;102029.66;3580298;40;20052;-63
2022/01/19 12:56:35;;;;;;;40.42;29.30;;;;;;;5.50;76.22;102007.41;3582158;40;20639;-64
2022/01/19 12:59:07;;;;;;;40.78;29.23;;;;;;;5.56;75.86;102021.50;3577015;40;20048;-63